sensor_id;sensor_type;location;lat;lon;timestamp;P1;durP1;ratioP1;P2;durP2;ratioP2
29240;SDS011;16268;49.880;8.648;2023-04-03T00:01:27;6.72;;;3.00;;
29240;SDS011;16268;49.880;8.648;2023-04-03T00:03:53;5.43;;;2.53;;
29240;SDS011;16268;49.880;8.648;2023-04-03T00:06:18;8.40;;;3.00;;
29240;SDS011;16268;49.880;8.648;2023-04-03T00:08:44;6.07;;;2.58;;
29240;SDS011;16268;49.880;8.648;2023-04-03T00:11:09;6.40;;;2.50;;
29240;SDS011;16268;49.880;8.648;2023-04-03T00:13:36;7.03;;;2.40;;
29240;SDS011;16268;49.880;8.648;2023-04-03T00:16:02;7.25;;;2.60;;
29240;SDS011;16268;49.880;8.648;2023-04-03T00:18:28;6.63;;;2.70;;
29240;SDS011;16268;49.880;8.648;2023-04-03T00:20:54;5.07;;;2.55;;
29240;SDS011;16268;49.880;8.648;2023-04-03T00:23:20;5.70;;;2.60;;
29240;SDS011;16268;49.880;8.648;2023-04-03T00:25:45;6.10;;;2.35;;
29240;SDS011;16268;49.880;8.648;2023-04-03T00:28:11;7.15;;;2.30;;
29240;SDS011;16268;49.880;8.648;2023-04-03T00:30:37;5.78;;;2.42;;
29240;SDS011;16268;49.880;8.648;2023-04-03T00:33:02;6.03;;;2.40;;
29240;SDS011;16268;49.880;8.648;2023-04-03T00:35:28;5.82;;;2.30;;
29240;SDS011;16268;49.880;8.648;2023-04-03T00:37:55;5.93;;;2.50;;
29240;SDS011;16268;49.880;8.648;2023-04-03T00:40:22;3.85;;;2.20;;
29240;SDS011;16268;49.880;8.648;2023-04-03T00:42:51;5.32;;;2.50;;
29240;SDS011;16268;49.880;8.648;2023-04-03T00:45:26;4.38;;;2.22;;
29240;SDS011;16268;49.880;8.648;2023-04-03T00:47:55;4.50;;;2.13;;
29240;SDS011;16268;49.880;8.648;2023-04-03T00:50:22;5.78;;;2.13;;
29240;SDS011;16268;49.880;8.648;2023-04-03T00:52:48;5.93;;;2.30;;
29240;SDS011;16268;49.880;8.648;2023-04-03T00:55:14;6.43;;;2.15;;
29240;SDS011;16268;49.880;8.648;2023-04-03T00:57:41;4.72;;;2.33;;
29240;SDS011;16268;49.880;8.648;2023-04-03T01:00:09;3.85;;;1.98;;
29240;SDS011;16268;49.880;8.648;2023-04-03T01:02:37;4.82;;;2.25;;
29240;SDS011;16268;49.880;8.648;2023-04-03T01:05:03;5.57;;;2.30;;
29240;SDS011;16268;49.880;8.648;2023-04-03T01:07:29;5.70;;;2.17;;
29240;SDS011;16268;49.880;8.648;2023-04-03T01:09:56;6.05;;;2.35;;
29240;SDS011;16268;49.880;8.648;2023-04-03T01:12:28;4.75;;;2.00;;
29240;SDS011;16268;49.880;8.648;2023-04-03T01:14:59;4.63;;;1.73;;
29240;SDS011;16268;49.880;8.648;2023-04-03T01:17:40;6.07;;;2.20;;
29240;SDS011;16268;49.880;8.648;2023-04-03T01:22:56;5.07;;;2.17;;
29240;SDS011;16268;49.880;8.648;2023-04-03T01:25:24;5.22;;;2.15;;
29240;SDS011;16268;49.880;8.648;2023-04-03T01:27:51;6.03;;;2.75;;
29240;SDS011;16268;49.880;8.648;2023-04-03T01:30:17;6.50;;;2.50;;
29240;SDS011;16268;49.880;8.648;2023-04-03T01:32:45;6.53;;;2.70;;
29240;SDS011;16268;49.880;8.648;2023-04-03T01:35:10;6.70;;;2.63;;
29240;SDS011;16268;49.880;8.648;2023-04-03T01:37:37;7.38;;;3.00;;
29240;SDS011;16268;49.880;8.648;2023-04-03T01:40:02;8.25;;;2.88;;
29240;SDS011;16268;49.880;8.648;2023-04-03T01:42:29;7.63;;;3.35;;
29240;SDS011;16268;49.880;8.648;2023-04-03T01:44:54;11.63;;;4.10;;
29240;SDS011;16268;49.880;8.648;2023-04-03T01:47:20;7.40;;;3.00;;
29240;SDS011;16268;49.880;8.648;2023-04-03T01:49:46;5.97;;;3.05;;
29240;SDS011;16268;49.880;8.648;2023-04-03T01:52:12;4.18;;;2.20;;
29240;SDS011;16268;49.880;8.648;2023-04-03T01:54:37;6.68;;;2.30;;
29240;SDS011;16268;49.880;8.648;2023-04-03T01:57:03;6.40;;;2.13;;
29240;SDS011;16268;49.880;8.648;2023-04-03T01:59:28;6.53;;;2.17;;
29240;SDS011;16268;49.880;8.648;2023-04-03T02:01:54;5.15;;;1.90;;
29240;SDS011;16268;49.880;8.648;2023-04-03T02:04:20;4.55;;;2.03;;
29240;SDS011;16268;49.880;8.648;2023-04-03T02:06:45;6.53;;;2.15;;
29240;SDS011;16268;49.880;8.648;2023-04-03T02:09:11;6.28;;;2.25;;
29240;SDS011;16268;49.880;8.648;2023-04-03T02:11:36;5.32;;;2.17;;
29240;SDS011;16268;49.880;8.648;2023-04-03T02:14:02;5.68;;;2.17;;
29240;SDS011;16268;49.880;8.648;2023-04-03T02:16:28;4.80;;;2.22;;
29240;SDS011;16268;49.880;8.648;2023-04-03T02:18:54;4.57;;;1.83;;
29240;SDS011;16268;49.880;8.648;2023-04-03T02:21:20;5.43;;;2.20;;
29240;SDS011;16268;49.880;8.648;2023-04-03T02:23:45;5.95;;;2.42;;
29240;SDS011;16268;49.880;8.648;2023-04-03T02:26:11;7.65;;;2.40;;
29240;SDS011;16268;49.880;8.648;2023-04-03T02:28:39;5.55;;;2.10;;
29240;SDS011;16268;49.880;8.648;2023-04-03T02:31:06;5.15;;;2.03;;
29240;SDS011;16268;49.880;8.648;2023-04-03T02:33:31;5.63;;;2.30;;
29240;SDS011;16268;49.880;8.648;2023-04-03T02:35:57;5.68;;;2.20;;
29240;SDS011;16268;49.880;8.648;2023-04-03T02:38:23;5.68;;;1.88;;
29240;SDS011;16268;49.880;8.648;2023-04-03T02:40:49;7.75;;;2.78;;
29240;SDS011;16268;49.880;8.648;2023-04-03T02:43:16;5.55;;;2.28;;
29240;SDS011;16268;49.880;8.648;2023-04-03T02:45:42;5.15;;;1.80;;
29240;SDS011;16268;49.880;8.648;2023-04-03T02:48:07;5.63;;;2.05;;
29240;SDS011;16268;49.880;8.648;2023-04-03T02:50:33;7.03;;;2.10;;
29240;SDS011;16268;49.880;8.648;2023-04-03T02:52:58;6.70;;;2.20;;
29240;SDS011;16268;49.880;8.648;2023-04-03T02:55:24;5.70;;;2.20;;
29240;SDS011;16268;49.880;8.648;2023-04-03T02:57:50;5.20;;;2.00;;
29240;SDS011;16268;49.880;8.648;2023-04-03T03:00:15;5.20;;;2.10;;
29240;SDS011;16268;49.880;8.648;2023-04-03T03:02:41;6.60;;;2.15;;
29240;SDS011;16268;49.880;8.648;2023-04-03T03:05:08;6.50;;;2.60;;
29240;SDS011;16268;49.880;8.648;2023-04-03T03:07:33;6.50;;;2.60;;
29240;SDS011;16268;49.880;8.648;2023-04-03T03:09:59;4.60;;;2.35;;
29240;SDS011;16268;49.880;8.648;2023-04-03T03:12:25;4.70;;;1.90;;
29240;SDS011;16268;49.880;8.648;2023-04-03T03:14:50;6.05;;;2.28;;
29240;SDS011;16268;49.880;8.648;2023-04-03T03:17:16;7.38;;;2.13;;
29240;SDS011;16268;49.880;8.648;2023-04-03T03:19:42;7.93;;;2.13;;
29240;SDS011;16268;49.880;8.648;2023-04-03T03:22:10;4.70;;;2.33;;
29240;SDS011;16268;49.880;8.648;2023-04-03T03:24:36;5.82;;;2.40;;
29240;SDS011;16268;49.880;8.648;2023-04-03T03:27:02;4.95;;;2.22;;
29240;SDS011;16268;49.880;8.648;2023-04-03T03:29:27;7.28;;;2.20;;
29240;SDS011;16268;49.880;8.648;2023-04-03T03:31:53;5.18;;;2.17;;
29240;SDS011;16268;49.880;8.648;2023-04-03T03:34:18;6.50;;;2.42;;
29240;SDS011;16268;49.880;8.648;2023-04-03T03:36:44;6.25;;;2.38;;
29240;SDS011;16268;49.880;8.648;2023-04-03T03:39:09;5.50;;;2.40;;
29240;SDS011;16268;49.880;8.648;2023-04-03T03:41:35;6.30;;;2.10;;
29240;SDS011;16268;49.880;8.648;2023-04-03T03:44:01;5.85;;;2.35;;
29240;SDS011;16268;49.880;8.648;2023-04-03T03:46:26;6.28;;;2.00;;
29240;SDS011;16268;49.880;8.648;2023-04-03T03:48:52;9.43;;;2.33;;
29240;SDS011;16268;49.880;8.648;2023-04-03T03:51:17;6.78;;;2.28;;
29240;SDS011;16268;49.880;8.648;2023-04-03T03:53:43;6.57;;;2.35;;
29240;SDS011;16268;49.880;8.648;2023-04-03T03:56:08;6.57;;;2.50;;
29240;SDS011;16268;49.880;8.648;2023-04-03T03:58:34;7.18;;;2.25;;
29240;SDS011;16268;49.880;8.648;2023-04-03T04:01:03;7.38;;;2.40;;
29240;SDS011;16268;49.880;8.648;2023-04-03T04:03:30;6.55;;;2.20;;
29240;SDS011;16268;49.880;8.648;2023-04-03T04:05:56;5.07;;;1.90;;
29240;SDS011;16268;49.880;8.648;2023-04-03T04:08:22;6.35;;;2.15;;
29240;SDS011;16268;49.880;8.648;2023-04-03T04:10:47;6.03;;;2.13;;
29240;SDS011;16268;49.880;8.648;2023-04-03T04:13:13;6.63;;;2.28;;
29240;SDS011;16268;49.880;8.648;2023-04-03T04:15:39;6.10;;;2.45;;
29240;SDS011;16268;49.880;8.648;2023-04-03T04:18:05;7.82;;;2.50;;
29240;SDS011;16268;49.880;8.648;2023-04-03T04:20:30;6.10;;;2.45;;
29240;SDS011;16268;49.880;8.648;2023-04-03T04:22:56;6.50;;;2.50;;
29240;SDS011;16268;49.880;8.648;2023-04-03T04:25:21;7.03;;;2.60;;
29240;SDS011;16268;49.880;8.648;2023-04-03T04:27:47;6.45;;;2.47;;
29240;SDS011;16268;49.880;8.648;2023-04-03T04:30:13;7.85;;;2.50;;
29240;SDS011;16268;49.880;8.648;2023-04-03T04:32:38;6.97;;;2.35;;
29240;SDS011;16268;49.880;8.648;2023-04-03T04:35:04;4.30;;;2.00;;
29240;SDS011;16268;49.880;8.648;2023-04-03T04:37:30;8.40;;;2.15;;
29240;SDS011;16268;49.880;8.648;2023-04-03T04:39:56;5.63;;;2.08;;
29240;SDS011;16268;49.880;8.648;2023-04-03T04:42:21;5.90;;;2.00;;
29240;SDS011;16268;49.880;8.648;2023-04-03T04:44:47;5.90;;;2.00;;
29240;SDS011;16268;49.880;8.648;2023-04-03T04:47:12;5.50;;;1.80;;
29240;SDS011;16268;49.880;8.648;2023-04-03T04:49:38;8.85;;;2.05;;
29240;SDS011;16268;49.880;8.648;2023-04-03T04:52:04;8.02;;;2.35;;
29240;SDS011;16268;49.880;8.648;2023-04-03T04:54:30;6.22;;;1.55;;
29240;SDS011;16268;49.880;8.648;2023-04-03T04:56:55;6.53;;;2.03;;
29240;SDS011;16268;49.880;8.648;2023-04-03T04:59:21;6.78;;;2.03;;
29240;SDS011;16268;49.880;8.648;2023-04-03T05:01:46;7.72;;;1.80;;
29240;SDS011;16268;49.880;8.648;2023-04-03T05:04:12;9.23;;;1.90;;
29240;SDS011;16268;49.880;8.648;2023-04-03T05:06:38;5.35;;;1.88;;
29240;SDS011;16268;49.880;8.648;2023-04-03T05:09:04;7.15;;;1.80;;
29240;SDS011;16268;49.880;8.648;2023-04-03T05:11:30;7.53;;;1.80;;
29240;SDS011;16268;49.880;8.648;2023-04-03T05:13:55;10.48;;;2.10;;
29240;SDS011;16268;49.880;8.648;2023-04-03T05:16:21;7.40;;;2.00;;
29240;SDS011;16268;49.880;8.648;2023-04-03T05:18:46;4.15;;;1.60;;
29240;SDS011;16268;49.880;8.648;2023-04-03T05:21:12;9.45;;;2.08;;
29240;SDS011;16268;49.880;8.648;2023-04-03T05:23:37;8.63;;;2.00;;
29240;SDS011;16268;49.880;8.648;2023-04-03T05:26:03;6.15;;;2.30;;
29240;SDS011;16268;49.880;8.648;2023-04-03T05:28:29;8.73;;;2.45;;
29240;SDS011;16268;49.880;8.648;2023-04-03T05:30:55;7.45;;;2.30;;
29240;SDS011;16268;49.880;8.648;2023-04-03T05:33:22;10.50;;;3.05;;
29240;SDS011;16268;49.880;8.648;2023-04-03T05:35:49;12.07;;;3.38;;
29240;SDS011;16268;49.880;8.648;2023-04-03T05:38:14;6.15;;;2.55;;
29240;SDS011;16268;49.880;8.648;2023-04-03T05:40:40;8.55;;;2.65;;
29240;SDS011;16268;49.880;8.648;2023-04-03T05:43:06;6.47;;;2.25;;
29240;SDS011;16268;49.880;8.648;2023-04-03T05:45:31;6.25;;;1.52;;
29240;SDS011;16268;49.880;8.648;2023-04-03T05:47:57;7.30;;;2.10;;
29240;SDS011;16268;49.880;8.648;2023-04-03T05:50:22;6.30;;;2.00;;
29240;SDS011;16268;49.880;8.648;2023-04-03T05:52:48;5.57;;;1.83;;
29240;SDS011;16268;49.880;8.648;2023-04-03T05:55:15;9.52;;;2.10;;
29240;SDS011;16268;49.880;8.648;2023-04-03T05:57:41;6.53;;;2.00;;
29240;SDS011;16268;49.880;8.648;2023-04-03T06:00:07;6.25;;;1.80;;
29240;SDS011;16268;49.880;8.648;2023-04-03T06:02:34;6.47;;;2.05;;
29240;SDS011;16268;49.880;8.648;2023-04-03T06:05:00;7.10;;;2.00;;
29240;SDS011;16268;49.880;8.648;2023-04-03T06:07:26;8.27;;;2.13;;
29240;SDS011;16268;49.880;8.648;2023-04-03T06:09:54;7.60;;;2.15;;
29240;SDS011;16268;49.880;8.648;2023-04-03T06:12:20;8.65;;;2.10;;
29240;SDS011;16268;49.880;8.648;2023-04-03T06:14:47;9.32;;;2.28;;
29240;SDS011;16268;49.880;8.648;2023-04-03T06:17:13;6.68;;;2.03;;
29240;SDS011;16268;49.880;8.648;2023-04-03T06:19:40;7.25;;;2.15;;
29240;SDS011;16268;49.880;8.648;2023-04-03T06:22:06;7.53;;;2.40;;
29240;SDS011;16268;49.880;8.648;2023-04-03T06:24:31;9.40;;;2.25;;
29240;SDS011;16268;49.880;8.648;2023-04-03T06:26:58;11.52;;;2.13;;
29240;SDS011;16268;49.880;8.648;2023-04-03T06:29:24;5.85;;;2.05;;
29240;SDS011;16268;49.880;8.648;2023-04-03T06:31:50;7.97;;;2.00;;
29240;SDS011;16268;49.880;8.648;2023-04-03T06:34:16;9.25;;;2.38;;
29240;SDS011;16268;49.880;8.648;2023-04-03T06:36:43;6.57;;;1.95;;
29240;SDS011;16268;49.880;8.648;2023-04-03T06:39:13;8.27;;;2.05;;
29240;SDS011;16268;49.880;8.648;2023-04-03T06:41:41;7.25;;;2.35;;
29240;SDS011;16268;49.880;8.648;2023-04-03T06:44:07;4.85;;;1.60;;
29240;SDS011;16268;49.880;8.648;2023-04-03T06:46:36;6.97;;;1.77;;
29240;SDS011;16268;49.880;8.648;2023-04-03T06:49:02;8.48;;;2.20;;
29240;SDS011;16268;49.880;8.648;2023-04-03T06:51:29;5.78;;;1.80;;
29240;SDS011;16268;49.880;8.648;2023-04-03T06:53:56;5.38;;;1.77;;
29240;SDS011;16268;49.880;8.648;2023-04-03T06:56:23;6.43;;;2.10;;
29240;SDS011;16268;49.880;8.648;2023-04-03T06:58:50;12.85;;;2.65;;
29240;SDS011;16268;49.880;8.648;2023-04-03T07:01:16;7.05;;;2.35;;
29240;SDS011;16268;49.880;8.648;2023-04-03T07:03:44;5.72;;;1.80;;
29240;SDS011;16268;49.880;8.648;2023-04-03T07:06:11;9.32;;;2.10;;
29240;SDS011;16268;49.880;8.648;2023-04-03T07:08:38;5.65;;;1.60;;
29240;SDS011;16268;49.880;8.648;2023-04-03T07:11:04;7.20;;;2.03;;
29240;SDS011;16268;49.880;8.648;2023-04-03T07:13:30;7.57;;;1.90;;
29240;SDS011;16268;49.880;8.648;2023-04-03T07:15:56;6.95;;;1.88;;
29240;SDS011;16268;49.880;8.648;2023-04-03T07:18:22;6.13;;;1.70;;
29240;SDS011;16268;49.880;8.648;2023-04-03T07:20:48;5.47;;;1.95;;
29240;SDS011;16268;49.880;8.648;2023-04-03T07:23:13;7.05;;;2.00;;
29240;SDS011;16268;49.880;8.648;2023-04-03T07:25:43;7.38;;;1.90;;
29240;SDS011;16268;49.880;8.648;2023-04-03T07:28:13;6.85;;;2.00;;
29240;SDS011;16268;49.880;8.648;2023-04-03T07:30:47;6.53;;;1.85;;
29240;SDS011;16268;49.880;8.648;2023-04-03T07:33:15;6.38;;;1.90;;
29240;SDS011;16268;49.880;8.648;2023-04-03T07:35:42;7.57;;;1.98;;
29240;SDS011;16268;49.880;8.648;2023-04-03T07:38:08;7.53;;;2.08;;
29240;SDS011;16268;49.880;8.648;2023-04-03T07:40:35;6.80;;;1.70;;
29240;SDS011;16268;49.880;8.648;2023-04-03T07:43:03;11.70;;;2.08;;
29240;SDS011;16268;49.880;8.648;2023-04-03T07:45:30;6.80;;;2.20;;
29240;SDS011;16268;49.880;8.648;2023-04-03T07:47:56;7.10;;;1.90;;
29240;SDS011;16268;49.880;8.648;2023-04-03T07:50:22;6.68;;;1.90;;
29240;SDS011;16268;49.880;8.648;2023-04-03T07:52:47;23.92;;;3.10;;
29240;SDS011;16268;49.880;8.648;2023-04-03T07:55:13;8.60;;;2.15;;
29240;SDS011;16268;49.880;8.648;2023-04-03T07:57:39;9.45;;;2.17;;
29240;SDS011;16268;49.880;8.648;2023-04-03T08:00:05;5.60;;;1.52;;
29240;SDS011;16268;49.880;8.648;2023-04-03T08:02:31;6.15;;;1.48;;
29240;SDS011;16268;49.880;8.648;2023-04-03T08:04:57;6.72;;;2.00;;
29240;SDS011;16268;49.880;8.648;2023-04-03T08:07:23;5.07;;;1.70;;
29240;SDS011;16268;49.880;8.648;2023-04-03T08:09:48;5.28;;;1.65;;
29240;SDS011;16268;49.880;8.648;2023-04-03T08:12:14;6.63;;;1.70;;
29240;SDS011;16268;49.880;8.648;2023-04-03T08:14:40;6.53;;;1.88;;
29240;SDS011;16268;49.880;8.648;2023-04-03T08:17:05;3.85;;;1.50;;
29240;SDS011;16268;49.880;8.648;2023-04-03T08:19:34;5.68;;;1.73;;
29240;SDS011;16268;49.880;8.648;2023-04-03T08:22:00;5.68;;;1.80;;
29240;SDS011;16268;49.880;8.648;2023-04-03T08:24:28;6.97;;;1.90;;
29240;SDS011;16268;49.880;8.648;2023-04-03T08:26:54;6.25;;;1.70;;
29240;SDS011;16268;49.880;8.648;2023-04-03T08:29:19;5.32;;;1.55;;
29240;SDS011;16268;49.880;8.648;2023-04-03T08:31:46;3.83;;;1.50;;
29240;SDS011;16268;49.880;8.648;2023-04-03T08:34:12;6.40;;;1.77;;
29240;SDS011;16268;49.880;8.648;2023-04-03T08:36:38;4.75;;;1.60;;
29240;SDS011;16268;49.880;8.648;2023-04-03T08:39:03;8.45;;;1.80;;
29240;SDS011;16268;49.880;8.648;2023-04-03T08:41:42;4.70;;;1.50;;
29240;SDS011;16268;49.880;8.648;2023-04-03T08:44:25;7.00;;;1.83;;
29240;SDS011;16268;49.880;8.648;2023-04-03T08:50:26;4.90;;;1.40;;
29240;SDS011;16268;49.880;8.648;2023-04-03T08:52:58;5.50;;;1.52;;
29240;SDS011;16268;49.880;8.648;2023-04-03T08:58:02;5.10;;;1.58;;
29240;SDS011;16268;49.880;8.648;2023-04-03T09:00:49;4.75;;;1.70;;
29240;SDS011;16268;49.880;8.648;2023-04-03T09:03:22;6.10;;;1.70;;
29240;SDS011;16268;49.880;8.648;2023-04-03T09:06:05;6.03;;;1.50;;
29240;SDS011;16268;49.880;8.648;2023-04-03T09:08:36;7.95;;;1.80;;
29240;SDS011;16268;49.880;8.648;2023-04-03T09:11:16;6.18;;;1.50;;
29240;SDS011;16268;49.880;8.648;2023-04-03T09:13:57;5.40;;;2.00;;
29240;SDS011;16268;49.880;8.648;2023-04-03T09:16:43;5.80;;;1.75;;
29240;SDS011;16268;49.880;8.648;2023-04-03T09:19:22;5.25;;;1.83;;
29240;SDS011;16268;49.880;8.648;2023-04-03T09:24:51;6.75;;;1.25;;
29240;SDS011;16268;49.880;8.648;2023-04-03T09:27:30;3.80;;;1.23;;
29240;SDS011;16268;49.880;8.648;2023-04-03T09:29:56;4.90;;;1.77;;
29240;SDS011;16268;49.880;8.648;2023-04-03T09:32:26;5.18;;;1.60;;
29240;SDS011;16268;49.880;8.648;2023-04-03T09:34:54;7.63;;;1.70;;
29240;SDS011;16268;49.880;8.648;2023-04-03T09:37:37;5.63;;;1.40;;
29240;SDS011;16268;49.880;8.648;2023-04-03T09:42:51;5.32;;;1.58;;
29240;SDS011;16268;49.880;8.648;2023-04-03T09:45:25;4.45;;;1.42;;
29240;SDS011;16268;49.880;8.648;2023-04-03T09:48:12;5.55;;;1.60;;
29240;SDS011;16268;49.880;8.648;2023-04-03T09:50:53;5.15;;;1.30;;
29240;SDS011;16268;49.880;8.648;2023-04-03T09:53:40;6.85;;;1.70;;
29240;SDS011;16268;49.880;8.648;2023-04-03T09:56:18;5.75;;;1.38;;
29240;SDS011;16268;49.880;8.648;2023-04-03T09:58:51;5.82;;;1.48;;
29240;SDS011;16268;49.880;8.648;2023-04-03T10:01:32;4.43;;;1.40;;
29240;SDS011;16268;49.880;8.648;2023-04-03T10:04:09;4.60;;;1.50;;
29240;SDS011;16268;49.880;8.648;2023-04-03T10:06:42;3.60;;;1.33;;
29240;SDS011;16268;49.880;8.648;2023-04-03T10:12:00;4.15;;;1.33;;
29240;SDS011;16268;49.880;8.648;2023-04-03T10:16:56;3.92;;;1.30;;
29240;SDS011;16268;49.880;8.648;2023-04-03T10:30:01;5.75;;;1.83;;
29240;SDS011;16268;49.880;8.648;2023-04-03T10:41:02;5.75;;;1.65;;
29240;SDS011;16268;49.880;8.648;2023-04-03T10:46:41;4.18;;;1.45;;
29240;SDS011;16268;49.880;8.648;2023-04-03T10:52:02;3.58;;;1.50;;
29240;SDS011;16268;49.880;8.648;2023-04-03T10:57:38;4.40;;;1.20;;
29240;SDS011;16268;49.880;8.648;2023-04-03T11:00:06;4.82;;;1.50;;
29240;SDS011;16268;49.880;8.648;2023-04-03T11:02:41;4.07;;;1.52;;
29240;SDS011;16268;49.880;8.648;2023-04-03T11:05:30;5.72;;;1.58;;
29240;SDS011;16268;49.880;8.648;2023-04-03T11:08:02;6.80;;;1.50;;
29240;SDS011;16268;49.880;8.648;2023-04-03T11:10:50;4.38;;;1.60;;
29240;SDS011;16268;49.880;8.648;2023-04-03T11:13:20;5.15;;;1.63;;
29240;SDS011;16268;49.880;8.648;2023-04-03T11:16:08;3.80;;;1.40;;
29240;SDS011;16268;49.880;8.648;2023-04-03T11:21:24;5.33;;;1.60;;
29240;SDS011;16268;49.880;8.648;2023-04-03T11:23:59;5.38;;;1.48;;
29240;SDS011;16268;49.880;8.648;2023-04-03T11:26:31;5.72;;;1.50;;
29240;SDS011;16268;49.880;8.648;2023-04-03T11:29:06;4.18;;;1.30;;
29240;SDS011;16268;49.880;8.648;2023-04-03T11:32:15;5.78;;;1.80;;
29240;SDS011;16268;49.880;8.648;2023-04-03T11:34:46;6.43;;;1.60;;
29240;SDS011;16268;49.880;8.648;2023-04-03T11:37:26;4.28;;;1.35;;
29240;SDS011;16268;49.880;8.648;2023-04-03T11:40:03;4.90;;;1.50;;
29240;SDS011;16268;49.880;8.648;2023-04-03T11:50:31;4.90;;;1.70;;
29240;SDS011;16268;49.880;8.648;2023-04-03T11:52:58;5.15;;;1.85;;
29240;SDS011;16268;49.880;8.648;2023-04-03T11:58:30;5.07;;;1.60;;
29240;SDS011;16268;49.880;8.648;2023-04-03T12:03:33;5.65;;;1.40;;
29240;SDS011;16268;49.880;8.648;2023-04-03T12:08:45;5.70;;;1.67;;
29240;SDS011;16268;49.880;8.648;2023-04-03T12:11:15;4.97;;;1.60;;
29240;SDS011;16268;49.880;8.648;2023-04-03T12:24:03;6.53;;;1.42;;
29240;SDS011;16268;49.880;8.648;2023-04-03T12:34:38;3.77;;;1.27;;
29240;SDS011;16268;49.880;8.648;2023-04-03T12:40:10;5.05;;;1.52;;
29240;SDS011;16268;49.880;8.648;2023-04-03T12:45:29;5.13;;;1.17;;
29240;SDS011;16268;49.880;8.648;2023-04-03T12:48:06;4.93;;;1.20;;
29240;SDS011;16268;49.880;8.648;2023-04-03T12:50:40;6.97;;;1.85;;
29240;SDS011;16268;49.880;8.648;2023-04-03T12:53:12;3.83;;;1.10;;
29240;SDS011;16268;49.880;8.648;2023-04-03T12:55:44;5.13;;;1.40;;
29240;SDS011;16268;49.880;8.648;2023-04-03T12:58:14;5.38;;;1.40;;
29240;SDS011;16268;49.880;8.648;2023-04-03T13:01:03;6.40;;;1.75;;
29240;SDS011;16268;49.880;8.648;2023-04-03T13:03:53;4.90;;;1.38;;
29240;SDS011;16268;49.880;8.648;2023-04-03T13:08:54;2.92;;;1.00;;
29240;SDS011;16268;49.880;8.648;2023-04-03T13:11:25;4.35;;;1.10;;
29240;SDS011;16268;49.880;8.648;2023-04-03T13:13:59;4.20;;;1.10;;
29240;SDS011;16268;49.880;8.648;2023-04-03T13:16:28;3.05;;;1.33;;
29240;SDS011;16268;49.880;8.648;2023-04-03T13:18:54;3.63;;;1.27;;
29240;SDS011;16268;49.880;8.648;2023-04-03T13:21:21;4.22;;;1.40;;
29240;SDS011;16268;49.880;8.648;2023-04-03T13:23:52;4.22;;;1.27;;
29240;SDS011;16268;49.880;8.648;2023-04-03T13:26:24;3.28;;;1.25;;
29240;SDS011;16268;49.880;8.648;2023-04-03T13:28:52;3.65;;;1.40;;
29240;SDS011;16268;49.880;8.648;2023-04-03T13:31:37;4.28;;;1.35;;
29240;SDS011;16268;49.880;8.648;2023-04-03T13:34:11;5.00;;;1.58;;
29240;SDS011;16268;49.880;8.648;2023-04-03T13:36:40;5.38;;;1.50;;
29240;SDS011;16268;49.880;8.648;2023-04-03T13:41:39;4.00;;;1.40;;
29240;SDS011;16268;49.880;8.648;2023-04-03T13:46:48;5.60;;;1.17;;
29240;SDS011;16268;49.880;8.648;2023-04-03T13:49:22;5.15;;;1.60;;
29240;SDS011;16268;49.880;8.648;2023-04-03T13:54:51;3.50;;;1.35;;
29240;SDS011;16268;49.880;8.648;2023-04-03T13:57:20;8.48;;;3.30;;
29240;SDS011;16268;49.880;8.648;2023-04-03T13:59:46;2.85;;;1.23;;
29240;SDS011;16268;49.880;8.648;2023-04-03T14:02:14;5.25;;;1.80;;
29240;SDS011;16268;49.880;8.648;2023-04-03T14:07:14;4.35;;;1.40;;
29240;SDS011;16268;49.880;8.648;2023-04-03T14:09:40;3.80;;;1.45;;
29240;SDS011;16268;49.880;8.648;2023-04-03T14:12:29;6.18;;;1.98;;
29240;SDS011;16268;49.880;8.648;2023-04-03T14:14:56;3.95;;;1.30;;
29240;SDS011;16268;49.880;8.648;2023-04-03T14:17:23;4.57;;;1.60;;
29240;SDS011;16268;49.880;8.648;2023-04-03T14:19:52;4.35;;;1.58;;
29240;SDS011;16268;49.880;8.648;2023-04-03T14:22:21;4.03;;;1.30;;
29240;SDS011;16268;49.880;8.648;2023-04-03T14:24:48;6.33;;;1.30;;
29240;SDS011;16268;49.880;8.648;2023-04-03T14:27:20;3.55;;;1.35;;
29240;SDS011;16268;49.880;8.648;2023-04-03T14:29:46;3.38;;;1.10;;
29240;SDS011;16268;49.880;8.648;2023-04-03T14:32:13;4.78;;;1.60;;
29240;SDS011;16268;49.880;8.648;2023-04-03T14:34:41;4.30;;;1.50;;
29240;SDS011;16268;49.880;8.648;2023-04-03T14:37:16;4.47;;;1.50;;
29240;SDS011;16268;49.880;8.648;2023-04-03T14:39:44;4.03;;;1.50;;
29240;SDS011;16268;49.880;8.648;2023-04-03T14:42:11;3.53;;;1.50;;
29240;SDS011;16268;49.880;8.648;2023-04-03T14:44:38;5.80;;;2.35;;
29240;SDS011;16268;49.880;8.648;2023-04-03T14:47:04;5.72;;;1.90;;
29240;SDS011;16268;49.880;8.648;2023-04-03T14:49:30;5.53;;;1.65;;
29240;SDS011;16268;49.880;8.648;2023-04-03T14:51:56;5.40;;;2.13;;
29240;SDS011;16268;49.880;8.648;2023-04-03T14:54:22;5.20;;;1.85;;
29240;SDS011;16268;49.880;8.648;2023-04-03T14:59:19;5.65;;;2.05;;
29240;SDS011;16268;49.880;8.648;2023-04-03T15:01:46;5.95;;;1.98;;
29240;SDS011;16268;49.880;8.648;2023-04-03T15:04:16;6.72;;;2.33;;
29240;SDS011;16268;49.880;8.648;2023-04-03T15:06:45;6.53;;;2.35;;
29240;SDS011;16268;49.880;8.648;2023-04-03T15:09:20;5.60;;;2.17;;
29240;SDS011;16268;49.880;8.648;2023-04-03T15:11:48;9.20;;;2.13;;
29240;SDS011;16268;49.880;8.648;2023-04-03T15:14:15;9.52;;;2.63;;
29240;SDS011;16268;49.880;8.648;2023-04-03T15:16:41;6.80;;;2.03;;
29240;SDS011;16268;49.880;8.648;2023-04-03T15:19:07;5.50;;;2.35;;
29240;SDS011;16268;49.880;8.648;2023-04-03T15:21:32;5.22;;;2.35;;
29240;SDS011;16268;49.880;8.648;2023-04-03T15:23:58;6.03;;;1.88;;
29240;SDS011;16268;49.880;8.648;2023-04-03T15:26:24;4.45;;;2.03;;
29240;SDS011;16268;49.880;8.648;2023-04-03T15:28:50;4.95;;;1.80;;
29240;SDS011;16268;49.880;8.648;2023-04-03T15:31:16;5.28;;;1.80;;
29240;SDS011;16268;49.880;8.648;2023-04-03T15:33:41;5.18;;;1.95;;
29240;SDS011;16268;49.880;8.648;2023-04-03T15:36:07;6.75;;;2.00;;
29240;SDS011;16268;49.880;8.648;2023-04-03T15:38:33;5.20;;;2.05;;
29240;SDS011;16268;49.880;8.648;2023-04-03T15:40:59;4.63;;;1.77;;
29240;SDS011;16268;49.880;8.648;2023-04-03T15:43:25;4.22;;;1.50;;
29240;SDS011;16268;49.880;8.648;2023-04-03T15:45:51;6.03;;;2.17;;
29240;SDS011;16268;49.880;8.648;2023-04-03T15:48:17;5.85;;;1.95;;
29240;SDS011;16268;49.880;8.648;2023-04-03T15:50:43;4.50;;;1.70;;
29240;SDS011;16268;49.880;8.648;2023-04-03T15:53:09;8.05;;;2.00;;
29240;SDS011;16268;49.880;8.648;2023-04-03T15:55:35;4.93;;;1.90;;
29240;SDS011;16268;49.880;8.648;2023-04-03T15:58:02;5.00;;;1.92;;
29240;SDS011;16268;49.880;8.648;2023-04-03T16:00:29;4.38;;;1.40;;
29240;SDS011;16268;49.880;8.648;2023-04-03T16:02:57;3.83;;;1.75;;
29240;SDS011;16268;49.880;8.648;2023-04-03T16:05:30;4.65;;;1.60;;
29240;SDS011;16268;49.880;8.648;2023-04-03T16:07:56;5.20;;;1.77;;
29240;SDS011;16268;49.880;8.648;2023-04-03T16:10:23;5.25;;;1.60;;
29240;SDS011;16268;49.880;8.648;2023-04-03T16:12:52;5.95;;;1.60;;
29240;SDS011;16268;49.880;8.648;2023-04-03T16:15:17;5.93;;;2.00;;
29240;SDS011;16268;49.880;8.648;2023-04-03T16:17:43;5.45;;;1.58;;
29240;SDS011;16268;49.880;8.648;2023-04-03T16:20:10;4.38;;;1.63;;
29240;SDS011;16268;49.880;8.648;2023-04-03T16:22:37;3.80;;;1.42;;
29240;SDS011;16268;49.880;8.648;2023-04-03T16:25:04;4.40;;;1.50;;
29240;SDS011;16268;49.880;8.648;2023-04-03T16:27:30;4.15;;;1.42;;
29240;SDS011;16268;49.880;8.648;2023-04-03T16:29:56;4.35;;;1.38;;
29240;SDS011;16268;49.880;8.648;2023-04-03T16:32:23;4.03;;;1.30;;
29240;SDS011;16268;49.880;8.648;2023-04-03T16:34:52;3.50;;;1.40;;
29240;SDS011;16268;49.880;8.648;2023-04-03T16:37:18;3.30;;;1.10;;
29240;SDS011;16268;49.880;8.648;2023-04-03T16:39:44;5.05;;;1.45;;
29240;SDS011;16268;49.880;8.648;2023-04-03T16:42:09;4.35;;;1.52;;